createdAt,value
2018-04-11T00:01:23.807Z,2.47
2018-04-11T00:03:51.559Z,2.37
2018-04-11T00:06:19.235Z,2.40
2018-04-11T00:08:46.992Z,2.50
2018-04-11T00:11:14.758Z,2.20
2018-04-11T00:13:42.627Z,2.07
2018-04-11T00:16:10.343Z,2.23
2018-04-11T00:18:38.158Z,2.50
2018-04-11T00:21:05.921Z,2.93
2018-04-11T00:23:33.694Z,2.87
2018-04-11T00:26:01.353Z,2.90
2018-04-11T00:28:29.178Z,2.93
2018-04-11T00:30:56.979Z,3.07
2018-04-11T00:33:24.730Z,3.40
2018-04-11T00:35:52.445Z,3.33
2018-04-11T00:38:20.167Z,3.77
2018-04-11T00:40:47.931Z,4.23
2018-04-11T00:43:15.644Z,4.27
2018-04-11T00:45:43.357Z,4.80
2018-04-11T00:48:11.179Z,5.30
2018-04-11T00:50:39.095Z,4.90
2018-04-11T00:53:18.941Z,5.40
2018-04-11T00:55:46.703Z,4.77
2018-04-11T00:58:14.624Z,6.20
2018-04-11T01:00:42.394Z,5.30
2018-04-11T01:03:10.105Z,4.70
2018-04-11T01:05:37.758Z,5.20
2018-04-11T01:08:05.489Z,4.77
2018-04-11T01:10:33.247Z,5.03
2018-04-11T01:13:01.052Z,5.00
2018-04-11T01:15:28.807Z,4.40
2018-04-11T01:17:56.636Z,4.20
2018-04-11T01:20:24.549Z,4.00
2018-04-11T01:22:52.322Z,4.13
2018-04-11T01:25:20.181Z,5.53
2018-04-11T01:27:47.836Z,5.37
2018-04-11T01:30:15.555Z,5.67
2018-04-11T01:32:43.273Z,6.87
2018-04-11T01:35:11.047Z,6.80
2018-04-11T01:37:38.686Z,7.17
2018-04-11T01:40:06.462Z,6.50
2018-04-11T01:42:34.124Z,6.07
2018-04-11T01:45:01.886Z,6.87
2018-04-11T01:47:29.719Z,7.20
2018-04-11T01:49:57.412Z,6.87
2018-04-11T01:52:25.072Z,6.07
2018-04-11T01:54:52.732Z,6.00
2018-04-11T01:57:20.463Z,7.00
2018-04-11T01:59:48.272Z,6.30
2018-04-11T02:02:15.932Z,5.67
2018-04-11T02:04:43.659Z,5.10
2018-04-11T02:07:11.459Z,4.27
2018-04-11T02:09:39.278Z,4.13
2018-04-11T02:12:06.984Z,4.10
2018-04-11T02:14:34.958Z,4.20
2018-04-11T02:17:02.825Z,4.03
2018-04-11T02:19:30.532Z,3.93
2018-04-11T02:21:58.353Z,4.17
2018-04-11T02:24:26.118Z,4.00
2018-04-11T02:26:53.993Z,4.27
2018-04-11T02:29:21.756Z,3.43
2018-04-11T02:31:49.523Z,3.70
2018-04-11T02:34:17.383Z,4.23
2018-04-11T02:36:45.249Z,3.47
2018-04-11T02:39:12.907Z,3.70
2018-04-11T02:41:40.783Z,4.40
2018-04-11T02:44:08.444Z,4.53
2018-04-11T02:46:36.163Z,4.20
2018-04-11T02:49:03.972Z,4.37
2018-04-11T02:51:31.835Z,4.30
2018-04-11T02:53:59.701Z,5.23
2018-04-11T02:56:27.428Z,4.73
2018-04-11T02:58:55.245Z,4.90
2018-04-11T03:01:23.002Z,4.20
2018-04-11T03:03:50.771Z,4.40
2018-04-11T03:06:18.468Z,4.73
2018-04-11T03:08:46.198Z,5.07
2018-04-11T03:11:13.909Z,5.03
2018-04-11T03:13:41.716Z,5.40
2018-04-11T03:16:09.375Z,5.23
2018-04-11T03:18:37.245Z,4.73
2018-04-11T03:21:04.908Z,4.30
2018-04-11T03:23:32.663Z,5.30
2018-04-11T03:26:00.399Z,4.57
2018-04-11T03:28:28.146Z,5.10
2018-04-11T03:30:55.908Z,5.10
2018-04-11T03:33:23.691Z,5.13
2018-04-11T03:35:51.490Z,4.83
2018-04-11T03:38:19.256Z,6.03
2018-04-11T03:40:47.124Z,6.70
2018-04-11T03:43:14.991Z,6.47
2018-04-11T03:45:42.755Z,6.03
2018-04-11T03:48:10.520Z,8.10
2018-04-11T03:50:38.347Z,9.07
2018-04-11T03:53:06.150Z,9.60
2018-04-11T03:55:34.024Z,11.07
2018-04-11T03:58:01.790Z,11.20
2018-04-11T04:00:29.605Z,11.93
2018-04-11T04:02:57.430Z,11.73
2018-04-11T04:05:25.291Z,11.17
2018-04-11T04:07:53.005Z,12.33
2018-04-11T04:10:20.911Z,12.60
2018-04-11T04:12:48.777Z,12.20
2018-04-11T04:15:28.421Z,12.33
2018-04-11T04:18:07.862Z,10.90
2018-04-11T04:20:37.467Z,11.20
2018-04-11T04:23:05.132Z,11.03
2018-04-11T04:25:32.996Z,10.60
2018-04-11T04:28:00.761Z,11.37
2018-04-11T04:30:28.518Z,12.67
2018-04-11T04:32:56.366Z,12.27
2018-04-11T04:35:24.154Z,11.27
2018-04-11T04:37:51.821Z,9.83
2018-04-11T04:40:19.689Z,12.20
2018-04-11T04:42:47.552Z,13.60
2018-04-11T04:45:15.272Z,12.30
2018-04-11T04:47:43.181Z,11.53
2018-04-11T04:50:11.154Z,11.23
2018-04-11T04:52:39.019Z,10.70
2018-04-11T04:55:06.737Z,9.67
2018-04-11T04:57:34.546Z,9.10
2018-04-11T05:00:02.206Z,10.17
2018-04-11T05:02:30.078Z,9.43
2018-04-11T05:04:57.943Z,8.70
2018-04-11T05:07:25.809Z,8.30
2018-04-11T05:09:53.462Z,8.03
2018-04-11T05:12:21.137Z,8.60
2018-04-11T05:14:48.802Z,7.37
2018-04-11T05:17:16.508Z,7.87
2018-04-11T05:19:44.332Z,8.80
2018-04-11T05:22:12.190Z,7.57
2018-04-11T05:24:39.844Z,6.60
2018-04-11T05:27:07.723Z,8.10
2018-04-11T05:29:35.485Z,7.33
2018-04-11T05:32:03.309Z,7.33
2018-04-11T05:34:31.221Z,6.30
2018-04-11T05:36:58.882Z,6.30
2018-04-11T05:39:26.652Z,7.33
2018-04-11T05:41:54.412Z,8.13
2018-04-11T05:44:22.189Z,7.07
2018-04-11T05:46:49.826Z,8.30
2018-04-11T05:49:17.469Z,7.00
2018-04-11T05:51:45.191Z,8.03
2018-04-11T05:54:13.237Z,8.83
2018-04-11T05:56:41.103Z,7.90
2018-04-11T05:59:08.862Z,8.60
2018-04-11T06:01:36.628Z,9.70
2018-04-11T06:04:04.424Z,10.00
2018-04-11T06:06:32.258Z,10.00
2018-04-11T06:09:00.027Z,10.43
2018-04-11T06:11:27.685Z,10.27
2018-04-11T06:13:55.551Z,12.67
2018-04-11T06:16:23.745Z,12.30
2018-04-11T06:18:51.569Z,11.90
2018-04-11T06:21:19.973Z,12.13
2018-04-11T06:23:47.841Z,11.10
2018-04-11T06:26:15.574Z,11.97
2018-04-11T06:28:43.260Z,10.40
2018-04-11T06:31:10.972Z,10.97
2018-04-11T06:33:38.739Z,11.30
2018-04-11T06:36:06.455Z,9.70
2018-04-11T06:38:34.227Z,10.07
2018-04-11T06:41:02.196Z,9.00
2018-04-11T06:43:29.958Z,9.10
2018-04-11T06:45:57.712Z,8.60
2018-04-11T06:48:25.439Z,8.43
2018-04-11T06:50:53.555Z,8.70
2018-04-11T06:53:21.328Z,9.00
2018-04-11T06:55:49.289Z,9.30
2018-04-11T06:58:17.061Z,8.77
2018-04-11T07:00:44.871Z,8.43
2018-04-11T07:03:12.680Z,9.37
2018-04-11T07:05:40.482Z,9.20
2018-04-11T07:08:08.211Z,10.30
2018-04-11T07:10:35.858Z,9.40
2018-04-11T07:13:03.540Z,9.37
2018-04-11T07:15:31.410Z,8.23
2018-04-11T07:17:59.122Z,8.80
2018-04-11T07:20:26.828Z,9.00
2018-04-11T07:22:54.791Z,8.17
2018-04-11T07:25:22.561Z,8.70
2018-04-11T07:27:50.430Z,9.20
2018-04-11T07:30:18.196Z,9.10
2018-04-11T07:32:46.062Z,9.57
2018-04-11T07:35:13.931Z,9.13
2018-04-11T07:37:41.675Z,9.40
2018-04-11T07:40:09.499Z,9.70
2018-04-11T07:42:37.371Z,9.30
2018-04-11T07:45:05.166Z,8.53
2018-04-11T07:47:33.032Z,8.80
2018-04-11T07:50:00.830Z,9.07
2018-04-11T07:52:28.677Z,9.40
2018-04-11T07:54:56.534Z,8.70
2018-04-11T07:57:24.246Z,10.17
2018-04-11T07:59:52.092Z,9.30
2018-04-11T08:02:19.951Z,9.37
2018-04-11T08:04:47.715Z,10.10
2018-04-11T08:07:15.483Z,9.40
2018-04-11T08:09:43.214Z,10.17
2018-04-11T08:12:10.908Z,10.77
2018-04-11T08:14:38.778Z,9.53
2018-04-11T08:17:06.436Z,10.47
2018-04-11T08:19:34.200Z,11.10
2018-04-11T08:22:01.961Z,9.87
2018-04-11T08:24:29.831Z,10.90
2018-04-11T08:26:57.700Z,10.50
2018-04-11T08:29:25.662Z,9.30
2018-04-11T08:31:53.533Z,9.80
2018-04-11T08:34:21.375Z,10.10
2018-04-11T08:36:49.008Z,11.80
2018-04-11T08:39:16.687Z,9.60
2018-04-11T08:41:44.309Z,10.40
2018-04-11T08:44:12.050Z,10.13
2018-04-11T08:46:39.815Z,9.40
2018-04-11T08:49:07.582Z,8.40
2018-04-11T08:51:35.335Z,9.13
2018-04-11T08:54:03.107Z,8.10
2018-04-11T08:56:30.878Z,8.70
2018-04-11T08:58:58.739Z,8.83
2018-04-11T09:01:26.500Z,8.30
2018-04-11T09:03:54.268Z,8.77
2018-04-11T09:06:21.931Z,8.13
2018-04-11T09:08:49.677Z,8.77
2018-04-11T09:11:17.466Z,8.87
2018-04-11T09:13:45.110Z,9.27
2018-04-11T09:16:12.886Z,8.37
2018-04-11T09:18:40.545Z,8.27
2018-04-11T09:21:08.414Z,9.07
2018-04-11T09:23:36.078Z,8.73
2018-04-11T09:26:04.013Z,9.57
2018-04-11T09:28:31.809Z,9.60
2018-04-11T09:30:59.499Z,9.30
2018-04-11T09:33:27.200Z,10.23
2018-04-11T09:35:55.001Z,10.30
2018-04-11T09:38:22.663Z,8.80
2018-04-11T09:40:50.429Z,8.83
2018-04-11T09:43:18.194Z,9.80
2018-04-11T09:45:45.950Z,9.63
2018-04-11T09:48:13.700Z,8.40
2018-04-11T09:50:41.382Z,8.97
2018-04-11T09:53:09.138Z,7.57
2018-04-11T09:55:36.780Z,8.07
2018-04-11T09:58:04.419Z,7.63
2018-04-11T10:00:32.027Z,6.43
2018-04-11T10:03:06.275Z,6.40
2018-04-11T10:05:33.915Z,6.20
2018-04-11T10:08:01.570Z,5.60
2018-04-11T10:10:29.187Z,6.00
2018-04-11T10:12:56.839Z,8.37
2018-04-11T10:15:24.467Z,8.30
2018-04-11T10:17:52.118Z,7.60
2018-04-11T10:20:19.801Z,7.63
2018-04-11T10:22:47.513Z,8.03
2018-04-11T10:25:15.199Z,7.43
2018-04-11T10:27:42.971Z,7.43
2018-04-11T10:30:10.702Z,6.63
2018-04-11T10:32:38.450Z,8.18
2018-04-11T10:35:06.266Z,6.83
2018-04-11T10:37:34.131Z,7.53
2018-04-11T10:40:01.854Z,6.67
2018-04-11T10:42:29.660Z,5.60
2018-04-11T10:44:57.487Z,6.23
2018-04-11T10:47:25.296Z,5.50
2018-04-11T10:49:53.058Z,5.40
2018-04-11T10:52:20.864Z,5.33
2018-04-11T10:54:48.906Z,6.37
2018-04-11T10:57:16.759Z,5.87
2018-04-11T10:59:44.427Z,6.10
2018-04-11T11:02:12.232Z,6.23
2018-04-11T11:04:39.948Z,6.47
2018-04-11T11:07:07.774Z,5.80
2018-04-11T11:09:35.535Z,5.57
2018-04-11T11:12:03.275Z,4.63
2018-04-11T11:14:30.966Z,5.13
2018-04-11T11:16:58.878Z,4.30
2018-04-11T11:19:26.648Z,4.70
2018-04-11T11:21:54.574Z,4.60
2018-04-11T11:24:22.378Z,4.60
2018-04-11T11:26:50.202Z,4.30
2018-04-11T11:29:17.900Z,5.43
2018-04-11T11:31:45.773Z,5.27
2018-04-11T11:34:13.636Z,3.40
2018-04-11T11:36:41.596Z,4.83
2018-04-11T11:39:09.369Z,4.90
2018-04-11T11:41:37.240Z,5.50
2018-04-11T11:44:04.899Z,5.23
2018-04-11T11:46:32.663Z,4.47
2018-04-11T11:49:00.327Z,4.20
2018-04-11T11:51:28.082Z,4.10
2018-04-11T11:53:55.956Z,3.67
2018-04-11T11:56:23.629Z,3.10
2018-04-11T11:58:51.283Z,3.40
2018-04-11T12:01:18.986Z,2.83
2018-04-11T12:03:46.757Z,2.60
2018-04-11T12:06:14.471Z,2.83
2018-04-11T12:08:42.288Z,1.97
2018-04-11T12:11:10.102Z,2.40
2018-04-11T12:13:37.860Z,2.10
2018-04-11T12:16:05.588Z,2.10
2018-04-11T12:18:33.498Z,1.80
2018-04-11T12:21:01.263Z,1.33
2018-04-11T12:23:28.992Z,2.20
2018-04-11T12:25:56.839Z,1.80
2018-04-11T12:28:24.547Z,1.47
2018-04-11T12:30:52.213Z,1.20
2018-04-11T12:33:19.933Z,1.00
2018-04-11T12:35:47.641Z,1.60
2018-04-11T12:38:15.466Z,1.63
2018-04-11T12:40:43.277Z,1.63
2018-04-11T12:43:11.147Z,1.20
2018-04-11T12:45:38.907Z,0.90
2018-04-11T12:48:06.787Z,0.90
2018-04-11T12:50:34.552Z,1.23
2018-04-11T12:53:02.405Z,1.13
2018-04-11T12:55:30.090Z,1.50
2018-04-11T12:57:57.936Z,1.30
2018-04-11T13:00:25.604Z,1.80
2018-04-11T13:02:53.412Z,1.60
2018-04-11T13:05:21.233Z,1.40
2018-04-11T13:07:48.945Z,1.47
2018-04-11T13:10:16.757Z,1.40
2018-04-11T13:12:44.624Z,1.40
2018-04-11T13:15:12.349Z,1.47
2018-04-11T13:17:40.054Z,1.40
2018-04-11T13:20:07.815Z,1.47
2018-04-11T13:22:35.586Z,1.70
2018-04-11T13:25:03.239Z,1.30
2018-04-11T13:27:31.013Z,1.60
2018-04-11T13:29:58.658Z,2.00
2018-04-11T13:32:26.396Z,1.40
2018-04-11T13:34:54.201Z,1.23
2018-04-11T13:37:22.063Z,1.80
2018-04-11T13:39:49.913Z,1.50
2018-04-11T13:42:17.594Z,1.50
2018-04-11T13:44:45.458Z,1.80
2018-04-11T13:47:13.877Z,2.00
2018-04-11T13:49:41.830Z,1.50
2018-04-11T13:52:09.679Z,2.03
2018-04-11T13:54:37.346Z,2.50
2018-04-11T13:57:05.307Z,1.60
2018-04-11T13:59:33.070Z,1.97
2018-04-11T14:02:01.040Z,1.43
2018-04-11T14:04:28.921Z,1.70
2018-04-11T14:06:56.774Z,2.30
2018-04-11T14:09:24.742Z,2.00
2018-04-11T14:11:52.614Z,2.63
2018-04-11T14:14:20.477Z,2.70
2018-04-11T14:16:48.344Z,2.10
2018-04-11T14:19:16.086Z,1.87
2018-04-11T14:21:43.864Z,2.10
2018-04-11T14:24:11.637Z,2.40
2018-04-11T14:26:39.361Z,1.67
2018-04-11T14:29:07.268Z,1.33
2018-04-11T14:31:34.947Z,1.77
2018-04-11T14:34:02.798Z,1.93
2018-04-11T14:36:30.527Z,1.57
2018-04-11T14:38:58.222Z,1.60
2018-04-11T14:41:25.937Z,2.00
2018-04-11T14:43:53.752Z,2.10
2018-04-11T14:46:21.478Z,2.33
2018-04-11T14:48:49.282Z,1.93
2018-04-11T14:51:17.046Z,2.30
2018-04-11T14:53:44.810Z,2.53
2018-04-11T14:56:12.513Z,2.33
2018-04-11T14:58:40.337Z,1.40
2018-04-11T15:01:08.058Z,1.50
2018-04-11T15:03:35.873Z,1.23
2018-04-11T15:06:03.593Z,1.80
2018-04-11T15:08:31.397Z,1.60
2018-04-11T15:10:59.160Z,1.40
2018-04-11T15:13:27.031Z,1.37
2018-04-11T15:15:55.629Z,1.70
2018-04-11T15:18:23.372Z,1.80
2018-04-11T15:20:51.110Z,1.73
2018-04-11T15:23:18.855Z,1.40
2018-04-11T15:25:46.668Z,1.53
2018-04-11T15:28:14.434Z,1.70
2018-04-11T15:30:42.200Z,1.50
2018-04-11T15:33:09.861Z,2.00
2018-04-11T15:35:37.625Z,1.50
2018-04-11T15:38:05.499Z,1.53
2018-04-11T15:40:33.361Z,1.90
2018-04-11T15:43:01.226Z,1.50
2018-04-11T15:45:28.991Z,1.37
2018-04-11T15:47:56.755Z,1.50
2018-04-11T15:50:24.460Z,1.60
2018-04-11T15:52:52.276Z,1.07
2018-04-11T15:55:19.995Z,1.10
2018-04-11T15:57:47.847Z,0.90
2018-04-11T16:00:15.608Z,0.70
2018-04-11T16:02:43.342Z,1.00
2018-04-11T16:05:11.062Z,1.03
2018-04-11T16:07:38.875Z,0.90
2018-04-11T16:10:06.695Z,0.93
2018-04-11T16:12:34.502Z,1.10
2018-04-11T16:15:02.267Z,0.80
2018-04-11T16:17:30.134Z,1.00
2018-04-11T16:19:57.793Z,1.03
2018-04-11T16:22:25.603Z,0.60
2018-04-11T16:24:53.276Z,0.83
2018-04-11T16:27:21.293Z,0.77
2018-04-11T16:29:49.052Z,0.70
2018-04-11T16:32:17.103Z,1.07
2018-04-11T16:34:45.000Z,1.10
2018-04-11T16:37:12.657Z,0.90
2018-04-11T16:39:40.625Z,1.20
2018-04-11T16:42:08.286Z,1.00
2018-04-11T16:44:36.163Z,0.90
2018-04-11T16:47:03.868Z,1.10
2018-04-11T16:49:31.709Z,1.27
2018-04-11T16:51:59.353Z,1.07
2018-04-11T16:54:27.067Z,1.27
2018-04-11T16:56:54.888Z,1.10
2018-04-11T16:59:22.640Z,1.00
2018-04-11T17:01:51.678Z,1.40
2018-04-11T17:04:19.562Z,1.30
2018-04-11T17:06:47.275Z,1.47
2018-04-11T17:09:15.097Z,1.60
2018-04-11T17:11:42.838Z,1.30
2018-04-11T17:14:10.605Z,1.50
2018-04-11T17:16:38.325Z,1.73
2018-04-11T17:19:06.089Z,1.77
2018-04-11T17:21:45.629Z,1.50
2018-04-11T17:24:25.379Z,1.70
2018-04-11T17:27:04.907Z,1.50
2018-04-11T17:32:37.619Z,1.40
2018-04-11T17:35:05.346Z,1.57
2018-04-11T17:37:33.106Z,1.40
2018-04-11T17:40:00.807Z,1.50
2018-04-11T17:42:28.638Z,1.87
2018-04-11T17:44:56.545Z,1.53
2018-04-11T17:47:24.305Z,1.53
2018-04-11T17:49:52.145Z,1.73
2018-04-11T17:52:19.834Z,1.33
2018-04-11T17:54:47.485Z,1.67
2018-04-11T17:57:15.259Z,1.30
2018-04-11T17:59:43.015Z,1.60
2018-04-11T18:02:10.753Z,1.40
2018-04-11T18:04:38.452Z,1.40
2018-04-11T18:07:06.215Z,1.17
2018-04-11T18:09:33.981Z,1.33
2018-04-11T18:12:01.702Z,1.53
2018-04-11T18:14:29.521Z,1.50
2018-04-11T18:16:57.171Z,1.50
2018-04-11T18:19:24.935Z,2.00
2018-04-11T18:21:52.986Z,1.40
2018-04-11T18:24:20.988Z,1.60
2018-04-11T18:26:48.742Z,1.50
2018-04-11T18:29:16.457Z,1.60
2018-04-11T18:31:44.300Z,1.53
2018-04-11T18:34:12.248Z,1.13
2018-04-11T18:36:40.000Z,1.50
2018-04-11T18:39:07.861Z,1.40
2018-04-11T18:41:35.633Z,1.47
2018-04-11T18:44:03.459Z,1.40
2018-04-11T18:46:31.160Z,1.50
2018-04-11T18:48:59.033Z,1.60
2018-04-11T18:51:26.688Z,1.80
2018-04-11T18:53:54.622Z,1.57
2018-04-11T18:56:22.436Z,1.77
2018-04-11T18:58:50.305Z,1.73
2018-04-11T19:01:18.197Z,1.90
2018-04-11T19:03:45.920Z,1.57
2018-04-11T19:06:13.581Z,1.97
2018-04-11T19:08:41.558Z,2.10
2018-04-11T19:11:09.322Z,2.10
2018-04-11T19:13:37.032Z,1.90
2018-04-11T19:16:04.850Z,2.07
2018-04-11T19:18:32.626Z,1.87
2018-04-11T19:21:00.382Z,2.40
2018-04-11T19:23:28.210Z,1.93
2018-04-11T19:25:56.011Z,2.47
2018-04-11T19:28:23.775Z,1.83
2018-04-11T19:30:51.536Z,1.93
2018-04-11T19:33:19.405Z,2.10
2018-04-11T19:35:47.273Z,1.90
2018-04-11T19:38:15.002Z,2.00
2018-04-11T19:40:42.906Z,2.60
2018-04-11T19:43:10.570Z,2.73
2018-04-11T19:45:38.281Z,2.10
2018-04-11T19:48:06.099Z,1.90
2018-04-11T19:50:33.933Z,2.30
2018-04-11T19:53:02.076Z,2.23
2018-04-11T19:55:29.899Z,2.40
2018-04-11T19:57:57.563Z,2.30
2018-04-11T20:00:25.324Z,2.63
2018-04-11T20:02:53.100Z,2.03
2018-04-11T20:05:20.905Z,2.27
2018-04-11T20:07:48.617Z,2.60
2018-04-11T20:10:16.442Z,2.13
2018-04-11T20:12:44.150Z,2.20
2018-04-11T20:15:12.121Z,2.40
2018-04-11T20:17:39.802Z,2.60
2018-04-11T20:20:07.648Z,3.20
2018-04-11T20:22:35.349Z,2.30
2018-04-11T20:25:03.307Z,2.20
2018-04-11T20:27:31.250Z,2.37
2018-04-11T20:29:59.115Z,2.30
2018-04-11T20:32:26.965Z,2.80
2018-04-11T20:34:54.747Z,2.60
2018-04-11T20:37:22.450Z,2.30
2018-04-11T20:39:50.276Z,2.30
2018-04-11T20:42:18.042Z,2.90
2018-04-11T20:44:45.912Z,2.10
2018-04-11T20:47:13.671Z,2.83
2018-04-11T20:49:41.539Z,2.23
2018-04-11T20:52:09.303Z,2.50
2018-04-11T20:54:37.117Z,2.30
2018-04-11T20:57:05.037Z,2.30
2018-04-11T20:59:32.903Z,2.33
2018-04-11T21:02:00.668Z,2.20
2018-04-11T21:04:28.432Z,2.60
2018-04-11T21:06:56.200Z,3.60
2018-04-11T21:09:24.092Z,3.60
2018-04-11T21:11:51.723Z,3.63
2018-04-11T21:14:19.484Z,5.37
2018-04-11T21:16:47.255Z,5.80
2018-04-11T21:19:15.124Z,4.90
2018-04-11T21:21:42.847Z,4.57
2018-04-11T21:24:10.652Z,3.63
2018-04-11T21:26:38.371Z,4.00
2018-04-11T21:29:06.077Z,3.17
2018-04-11T21:31:33.841Z,3.10
2018-04-11T21:34:01.606Z,2.50
2018-04-11T21:36:29.323Z,2.00
2018-04-11T21:38:57.177Z,1.77
2018-04-11T21:41:24.793Z,2.37
2018-04-11T21:43:52.573Z,2.00
2018-04-11T21:46:20.435Z,2.80
2018-04-11T21:48:48.140Z,3.40
2018-04-11T21:51:15.949Z,3.33
2018-04-11T21:53:43.723Z,3.30
2018-04-11T21:56:11.496Z,3.20
2018-04-11T21:58:39.222Z,3.00
2018-04-11T22:01:06.994Z,3.07
2018-04-11T22:03:34.788Z,2.87
2018-04-11T22:06:02.647Z,3.30
2018-04-11T22:08:30.413Z,3.03
2018-04-11T22:10:58.177Z,3.70
2018-04-11T22:13:25.939Z,3.60
2018-04-11T22:15:53.888Z,3.50
2018-04-11T22:18:21.572Z,3.70
2018-04-11T22:20:49.227Z,3.43
2018-04-11T22:23:17.099Z,2.50
2018-04-11T22:25:44.764Z,2.70
2018-04-11T22:28:12.424Z,2.80
2018-04-11T22:30:40.099Z,3.50
2018-04-11T22:33:07.811Z,4.50
2018-04-11T22:35:35.615Z,4.03
2018-04-11T22:38:03.277Z,4.10
2018-04-11T22:40:32.872Z,3.80
2018-04-11T22:43:00.538Z,3.53
2018-04-11T22:45:28.288Z,3.83
2018-04-11T22:47:56.030Z,4.00
2018-04-11T22:50:23.942Z,3.57
2018-04-11T22:52:51.773Z,3.50
2018-04-11T22:55:19.464Z,3.57
2018-04-11T22:57:47.237Z,4.00
2018-04-11T23:00:15.210Z,3.70
2018-04-11T23:02:42.970Z,4.27
2018-04-11T23:05:10.838Z,4.10
2018-04-11T23:07:38.585Z,4.13
2018-04-11T23:10:06.289Z,4.00
2018-04-11T23:12:34.131Z,4.50
2018-04-11T23:15:02.084Z,4.73
2018-04-11T23:17:29.865Z,4.23
2018-04-11T23:19:57.733Z,4.20
2018-04-11T23:22:25.464Z,4.57
2018-04-11T23:24:53.369Z,4.60
2018-04-11T23:27:21.135Z,4.70
2018-04-11T23:29:48.950Z,3.93
2018-04-11T23:32:16.712Z,3.53
2018-04-11T23:34:44.601Z,3.67
2018-04-11T23:37:12.287Z,3.33
2018-04-11T23:39:40.052Z,4.43
2018-04-11T23:42:07.770Z,4.43
2018-04-11T23:44:35.514Z,4.30
2018-04-11T23:47:03.202Z,4.30
2018-04-11T23:49:31.006Z,4.40
2018-04-11T23:51:58.773Z,4.60
2018-04-11T23:54:26.538Z,5.00
2018-04-11T23:56:54.246Z,5.17
2018-04-11T23:59:22.067Z,5.27
